createdAt,value
2017-09-17T00:01:25.298Z,101135.15
2017-09-17T00:03:53.710Z,101128.58
2017-09-17T00:06:24.172Z,101125.61
2017-09-17T00:08:52.590Z,101123.30
2017-09-17T00:11:20.926Z,101130.02
2017-09-17T00:13:49.748Z,101124.28
2017-09-17T00:16:18.093Z,101122.09
2017-09-17T00:18:47.062Z,101116.23
2017-09-17T00:21:17.309Z,101124.25
2017-09-17T00:23:45.661Z,101122.51
2017-09-17T00:26:14.854Z,101125.40
2017-09-17T00:28:43.502Z,101123.87
2017-09-17T00:31:11.878Z,101122.17
2017-09-17T00:33:40.275Z,101117.84
2017-09-17T00:36:09.018Z,101121.44
2017-09-17T00:38:37.364Z,101123.73
2017-09-17T00:41:07.790Z,101123.73
2017-09-17T00:43:36.605Z,101123.38
2017-09-17T00:46:05.000Z,101120.66
2017-09-17T00:48:33.374Z,101117.87
2017-09-17T00:51:03.723Z,101116.34
2017-09-17T00:53:32.234Z,101123.31
2017-09-17T00:56:01.542Z,101125.99
2017-09-17T00:58:31.045Z,101128.28
2017-09-17T01:00:59.594Z,101125.31
2017-09-17T01:03:28.196Z,101122.22
2017-09-17T01:05:56.817Z,101115.98
2017-09-17T01:08:26.753Z,101118.63
2017-09-17T01:10:55.741Z,101120.73
2017-09-17T01:13:24.668Z,101119.45
2017-09-17T01:15:53.030Z,101118.55
2017-09-17T01:18:21.400Z,101120.33
2017-09-17T01:20:50.105Z,101118.28
2017-09-17T01:23:18.485Z,101126.42
2017-09-17T01:25:47.837Z,101122.97
2017-09-17T01:28:17.583Z,101120.42
2017-09-17T01:30:46.223Z,101124.29
2017-09-17T01:33:14.591Z,101118.11
2017-09-17T01:35:44.062Z,101123.00
2017-09-17T01:38:12.422Z,101123.03
2017-09-17T01:40:43.139Z,101127.17
2017-09-17T01:43:13.911Z,101123.00
2017-09-17T01:45:42.259Z,101121.54
2017-09-17T01:48:11.423Z,101116.22
2017-09-17T01:50:40.493Z,101122.25
2017-09-17T01:53:11.273Z,101123.14
2017-09-17T01:55:39.631Z,101121.80
2017-09-17T01:58:08.281Z,101120.79
2017-09-17T02:00:37.170Z,101117.53
2017-09-17T02:03:06.438Z,101124.31
2017-09-17T02:05:36.404Z,101126.18
2017-09-17T02:08:04.758Z,101124.03
2017-09-17T02:10:34.786Z,101120.66
2017-09-17T02:13:05.366Z,101119.94
2017-09-17T02:15:34.405Z,101120.12
2017-09-17T02:18:03.501Z,101123.88
2017-09-17T02:20:32.249Z,101121.39
2017-09-17T02:23:00.862Z,101115.41
2017-09-17T02:25:30.091Z,101109.67
2017-09-17T02:27:58.957Z,101114.64
2017-09-17T02:30:27.337Z,101117.63
2017-09-17T02:32:56.463Z,101121.20
2017-09-17T02:35:26.039Z,101118.58
2017-09-17T02:37:55.613Z,101117.45
2017-09-17T02:40:24.191Z,101117.97
2017-09-17T02:42:53.000Z,101116.98
2017-09-17T02:45:22.689Z,101126.19
2017-09-17T02:47:51.044Z,101126.95
2017-09-17T02:50:21.925Z,101130.00
2017-09-17T02:52:51.070Z,101135.77
2017-09-17T02:55:19.441Z,101137.07
2017-09-17T02:57:48.329Z,101134.87
2017-09-17T03:00:18.100Z,101133.17
2017-09-17T03:02:47.214Z,101126.70
2017-09-17T03:05:16.645Z,101128.91
2017-09-17T03:07:45.038Z,101121.34
2017-09-17T03:10:13.419Z,101125.19
2017-09-17T03:12:42.192Z,101127.63
2017-09-17T03:15:10.634Z,101121.75
2017-09-17T03:17:39.762Z,101127.98
2017-09-17T03:20:09.503Z,101133.44
2017-09-17T03:22:37.874Z,101127.30
2017-09-17T03:25:06.255Z,101125.88
2017-09-17T03:27:35.012Z,101125.53
2017-09-17T03:30:03.419Z,101119.32
2017-09-17T03:32:32.614Z,101124.55
2017-09-17T03:35:01.510Z,101124.92
2017-09-17T03:37:29.904Z,101124.81
2017-09-17T03:39:58.887Z,101121.88
2017-09-17T03:42:27.854Z,101129.44
2017-09-17T03:44:56.398Z,101124.19
2017-09-17T03:47:24.772Z,101122.89
2017-09-17T03:49:53.623Z,101126.05
2017-09-17T03:52:21.982Z,101119.06
2017-09-17T03:54:51.457Z,101122.42
2017-09-17T03:57:21.094Z,101123.34
2017-09-17T03:59:49.436Z,101124.72
2017-09-17T04:02:18.653Z,101126.82
2017-09-17T04:04:48.061Z,101133.95
2017-09-17T04:07:17.167Z,101132.37
2017-09-17T04:09:46.272Z,101140.14
2017-09-17T04:12:15.010Z,101131.32
2017-09-17T04:14:43.405Z,101132.29
2017-09-17T04:17:13.930Z,101140.53
2017-09-17T04:19:43.771Z,101139.18
2017-09-17T04:22:13.390Z,101139.91
2017-09-17T04:24:41.747Z,101151.59
2017-09-17T04:27:11.271Z,101148.35
2017-09-17T04:29:40.316Z,101155.80
2017-09-17T04:32:10.578Z,101153.43
2017-09-17T04:34:40.867Z,101156.06
2017-09-17T04:37:09.270Z,101162.61
2017-09-17T04:39:39.061Z,101165.46
2017-09-17T04:42:07.824Z,101169.09
2017-09-17T04:44:36.188Z,101173.06
2017-09-17T04:47:05.153Z,101177.09
2017-09-17T04:49:33.798Z,101181.97
2017-09-17T04:52:02.997Z,101177.81
2017-09-17T04:54:31.343Z,101181.17
2017-09-17T04:56:59.969Z,101183.77
2017-09-17T04:59:28.343Z,101182.17
2017-09-17T05:01:57.121Z,101180.33
2017-09-17T05:04:27.304Z,101182.63
2017-09-17T05:06:56.555Z,101182.91
2017-09-17T05:09:24.890Z,101189.06
2017-09-17T05:11:54.120Z,101185.14
2017-09-17T05:14:22.497Z,101181.01
2017-09-17T05:16:50.974Z,101184.34
2017-09-17T05:19:20.219Z,101192.89
2017-09-17T05:21:48.579Z,101197.22
2017-09-17T05:24:16.935Z,101195.28
2017-09-17T05:26:46.497Z,101195.48
2017-09-17T05:29:15.406Z,101192.61
2017-09-17T05:31:43.768Z,101194.76
2017-09-17T05:34:12.834Z,101196.27
2017-09-17T05:36:41.557Z,101194.94
2017-09-17T05:39:10.330Z,101195.86
2017-09-17T05:41:39.755Z,101198.69
2017-09-17T05:44:08.517Z,101196.95
2017-09-17T05:46:37.864Z,101200.12
2017-09-17T05:49:06.634Z,101196.99
2017-09-17T05:51:37.403Z,101196.48
2017-09-17T05:54:05.949Z,101204.09
2017-09-17T05:56:34.669Z,101198.44
2017-09-17T05:59:04.189Z,101197.84
2017-09-17T06:01:33.510Z,101203.12
2017-09-17T06:04:02.334Z,101204.91
2017-09-17T06:06:30.934Z,101203.92
2017-09-17T06:09:00.906Z,101207.78
2017-09-17T06:11:31.464Z,101210.52
2017-09-17T06:14:00.430Z,101197.70
2017-09-17T06:16:28.779Z,101209.44
2017-09-17T06:18:57.405Z,101200.20
2017-09-17T06:21:26.125Z,101196.06
2017-09-17T06:23:54.473Z,101191.67
2017-09-17T06:26:23.398Z,101199.64
2017-09-17T06:28:52.426Z,101189.51
2017-09-17T06:31:22.295Z,101183.20
2017-09-17T06:33:52.063Z,101186.98
2017-09-17T06:36:20.423Z,101182.84
2017-09-17T06:38:49.468Z,101184.31
2017-09-17T06:41:19.040Z,101184.42
2017-09-17T06:43:47.441Z,101186.98
2017-09-17T06:46:16.343Z,101184.58
2017-09-17T06:48:45.357Z,101189.82
2017-09-17T06:51:13.840Z,101193.48
2017-09-17T06:53:42.215Z,101189.19
2017-09-17T06:56:11.340Z,101192.59
2017-09-17T06:58:40.920Z,101189.78
2017-09-17T07:01:09.297Z,101190.56
2017-09-17T07:03:38.868Z,101194.30
2017-09-17T07:06:08.029Z,101196.85
2017-09-17T07:08:38.727Z,101199.69
2017-09-17T07:11:08.370Z,101194.89
2017-09-17T07:13:36.716Z,101190.53
2017-09-17T07:16:06.098Z,101194.65
2017-09-17T07:18:35.251Z,101197.82
2017-09-17T07:21:04.346Z,101202.78
2017-09-17T07:23:32.940Z,101194.47
2017-09-17T07:26:01.688Z,101186.97
2017-09-17T07:28:30.334Z,101195.34
2017-09-17T07:30:59.521Z,101198.72
2017-09-17T07:33:28.185Z,101202.82
2017-09-17T07:35:57.336Z,101206.73
2017-09-17T07:38:26.541Z,101219.80
2017-09-17T07:40:57.379Z,101215.58
2017-09-17T07:43:26.571Z,101220.58
2017-09-17T07:45:55.700Z,101222.30
2017-09-17T07:48:26.561Z,101221.42
2017-09-17T07:50:54.987Z,101225.74
2017-09-17T07:53:24.123Z,101228.81
2017-09-17T07:55:52.888Z,101228.25
2017-09-17T07:58:21.292Z,101225.89
2017-09-17T08:00:51.116Z,101224.02
2017-09-17T08:03:19.951Z,101221.43
2017-09-17T08:05:48.979Z,101217.27
2017-09-17T08:08:18.303Z,101215.64
2017-09-17T08:10:46.930Z,101218.64
2017-09-17T08:13:17.359Z,101224.28
2017-09-17T08:15:46.596Z,101220.31
2017-09-17T08:18:15.361Z,101219.77
2017-09-17T08:20:43.720Z,101215.81
2017-09-17T08:23:12.082Z,101217.30
2017-09-17T08:25:41.288Z,101222.28
2017-09-17T08:28:10.439Z,101226.17
2017-09-17T08:30:38.841Z,101224.08
2017-09-17T08:33:07.635Z,101213.37
2017-09-17T08:35:35.983Z,101216.33
2017-09-17T08:38:04.359Z,101216.80
2017-09-17T08:40:32.979Z,101222.69
2017-09-17T08:43:01.843Z,101219.98
2017-09-17T08:45:31.406Z,101220.30
2017-09-17T08:48:01.911Z,101223.77
2017-09-17T08:50:31.163Z,101219.42
2017-09-17T08:52:59.581Z,101210.45
2017-09-17T08:55:28.367Z,101218.73
2017-09-17T08:57:56.755Z,101215.48
2017-09-17T09:00:25.140Z,101209.84
2017-09-17T09:02:55.518Z,101209.28
2017-09-17T09:05:23.933Z,101207.06
2017-09-17T09:07:52.312Z,101204.77
2017-09-17T09:10:21.957Z,101206.91
2017-09-17T09:12:51.110Z,101206.24
2017-09-17T09:15:20.179Z,101209.05
2017-09-17T09:17:49.212Z,101204.98
2017-09-17T09:20:17.874Z,101208.47
2017-09-17T09:22:46.677Z,101211.73
2017-09-17T09:25:15.336Z,101207.62
2017-09-17T09:27:44.696Z,101203.66
2017-09-17T09:30:13.781Z,101202.00
2017-09-17T09:32:42.942Z,101206.02
2017-09-17T09:35:11.392Z,101202.80
2017-09-17T09:37:41.120Z,101199.06
2017-09-17T09:40:11.092Z,101193.52
2017-09-17T09:42:39.462Z,101204.34
2017-09-17T09:45:08.800Z,101210.63
2017-09-17T09:47:37.961Z,101200.13
2017-09-17T09:50:06.723Z,101197.30
2017-09-17T09:52:35.103Z,101195.78
2017-09-17T09:55:03.817Z,101188.27
2017-09-17T09:57:32.435Z,101184.74
2017-09-17T10:00:00.856Z,101184.05
2017-09-17T10:02:29.806Z,101185.41
2017-09-17T10:04:58.942Z,101187.02
2017-09-17T10:07:27.301Z,101175.27
2017-09-17T10:09:56.919Z,101173.59
2017-09-17T10:12:25.265Z,101176.88
2017-09-17T10:14:53.700Z,101176.23
2017-09-17T10:17:22.642Z,101169.36
2017-09-17T10:19:52.520Z,101175.44
2017-09-17T10:22:21.925Z,101175.16
2017-09-17T10:24:50.564Z,101167.48
2017-09-17T10:27:18.943Z,101163.75
2017-09-17T10:29:47.782Z,101167.03
2017-09-17T10:32:16.399Z,101165.53
2017-09-17T10:34:46.479Z,101163.87
2017-09-17T10:37:14.939Z,101165.91
2017-09-17T10:39:44.697Z,101155.98
2017-09-17T10:42:13.817Z,101163.24
2017-09-17T10:44:42.939Z,101166.27
2017-09-17T10:47:12.700Z,101160.02
2017-09-17T10:49:41.645Z,101165.99
2017-09-17T10:52:10.089Z,101167.07
2017-09-17T10:54:40.353Z,101170.54
2017-09-17T10:57:09.247Z,101167.89
2017-09-17T10:59:38.236Z,101154.46
2017-09-17T11:02:07.756Z,101161.66
2017-09-17T11:04:36.154Z,101159.25
2017-09-17T11:07:05.033Z,101156.58
2017-09-17T11:09:33.724Z,101160.22
2017-09-17T11:12:02.614Z,101151.56
2017-09-17T11:14:31.779Z,101150.95
2017-09-17T11:17:00.498Z,101150.39
2017-09-17T11:19:28.848Z,101146.45
2017-09-17T11:21:57.603Z,101134.20
2017-09-17T11:24:27.583Z,101129.94
2017-09-17T11:26:56.224Z,101123.89
2017-09-17T11:29:25.353Z,101116.48
2017-09-17T11:31:55.161Z,101118.13
2017-09-17T11:34:23.502Z,101121.73
2017-09-17T11:36:53.486Z,101120.20
2017-09-17T11:39:23.163Z,101108.41
2017-09-17T11:41:51.518Z,101109.56
2017-09-17T11:44:19.879Z,101105.60
2017-09-17T11:46:49.857Z,101107.20
2017-09-17T11:49:18.225Z,101106.09
2017-09-17T11:51:47.528Z,101106.59
2017-09-17T11:54:16.241Z,101105.25
2017-09-17T11:56:44.925Z,101104.85
2017-09-17T11:59:13.292Z,101100.33
2017-09-17T12:01:42.149Z,101103.10
2017-09-17T12:04:10.514Z,101099.34
2017-09-17T12:06:39.638Z,101098.30
2017-09-17T12:09:08.702Z,101089.78
2017-09-17T12:11:37.099Z,101098.23
2017-09-17T12:14:05.477Z,101085.65
2017-09-17T12:16:34.163Z,101088.27
2017-09-17T12:19:03.313Z,101085.61
2017-09-17T12:21:31.691Z,101088.08
2017-09-17T12:24:01.175Z,101073.89
2017-09-17T12:26:29.535Z,101073.73
2017-09-17T12:29:00.379Z,101074.29
2017-09-17T12:31:29.327Z,101075.68
2017-09-17T12:33:59.700Z,101071.23
2017-09-17T12:36:28.051Z,101068.22
2017-09-17T12:38:56.721Z,101065.27
2017-09-17T12:41:25.884Z,101066.69
2017-09-17T12:43:54.704Z,101066.85
2017-09-17T12:46:24.116Z,101073.95
2017-09-17T12:48:54.033Z,101071.93
2017-09-17T12:51:23.467Z,101071.28
2017-09-17T12:53:52.254Z,101068.58
2017-09-17T12:56:21.579Z,101055.95
2017-09-17T12:58:50.782Z,101052.63
2017-09-17T13:01:19.741Z,101043.48
2017-09-17T13:03:48.972Z,101047.77
2017-09-17T13:06:19.520Z,101056.19
2017-09-17T13:08:48.559Z,101058.91
2017-09-17T13:11:16.939Z,101050.47
2017-09-17T13:13:46.841Z,101051.23
2017-09-17T13:16:15.917Z,101045.97
2017-09-17T13:18:45.047Z,101043.84
2017-09-17T13:21:13.499Z,101031.42
2017-09-17T13:23:43.748Z,101039.30
2017-09-17T13:26:13.187Z,101042.02
2017-09-17T13:28:41.636Z,101030.05
2017-09-17T13:31:10.433Z,101027.06
2017-09-17T13:33:40.088Z,101023.95
2017-09-17T13:36:08.454Z,101025.11
2017-09-17T13:38:37.698Z,101024.67
2017-09-17T13:41:06.916Z,101033.42
2017-09-17T13:43:35.299Z,101030.78
2017-09-17T13:46:04.220Z,101025.38
2017-09-17T13:48:32.681Z,101025.09
2017-09-17T13:51:01.591Z,101025.17
2017-09-17T13:53:30.311Z,101018.16
2017-09-17T13:55:59.760Z,101021.30
2017-09-17T13:58:29.179Z,101011.48
2017-09-17T14:04:17.662Z,101013.41
2017-09-17T14:06:49.856Z,101019.05
2017-09-17T14:09:19.149Z,101018.95
2017-09-17T14:11:48.298Z,101028.14
2017-09-17T14:14:16.940Z,101025.56
2017-09-17T14:16:47.917Z,101024.03
2017-09-17T14:19:17.078Z,101034.19
2017-09-17T14:21:46.112Z,101038.91
2017-09-17T14:24:16.032Z,101044.77
2017-09-17T14:26:45.290Z,101046.28
2017-09-17T14:29:14.696Z,101044.34
2017-09-17T14:31:43.882Z,101048.08
2017-09-17T14:34:12.255Z,101039.38
2017-09-17T14:36:41.051Z,101039.52
2017-09-17T14:39:09.475Z,101041.23
2017-09-17T14:41:39.072Z,101039.89
2017-09-17T14:44:08.877Z,101037.75
2017-09-17T14:46:38.256Z,101039.63
2017-09-17T14:49:06.933Z,101038.30
2017-09-17T14:51:35.967Z,101042.62
2017-09-17T14:54:04.354Z,101049.12
2017-09-17T14:56:33.686Z,101041.95
2017-09-17T14:59:03.261Z,101036.73
2017-09-17T15:01:32.290Z,101039.16
2017-09-17T15:04:01.985Z,101039.63
2017-09-17T15:06:31.782Z,101040.59
2017-09-17T15:09:00.547Z,101044.15
2017-09-17T15:11:29.652Z,101048.80
2017-09-17T15:13:59.070Z,101048.38
2017-09-17T15:16:29.015Z,101050.48
2017-09-17T15:18:58.395Z,101056.17
2017-09-17T15:21:27.190Z,101054.37
2017-09-17T15:23:55.575Z,101052.50
2017-09-17T15:26:24.198Z,101053.64
2017-09-17T15:28:53.737Z,101056.92
2017-09-17T15:31:22.120Z,101063.61
2017-09-17T15:33:50.510Z,101061.39
2017-09-17T15:36:19.637Z,101063.02
2017-09-17T15:38:48.778Z,101061.52
2017-09-17T15:41:17.395Z,101057.92
2017-09-17T15:43:47.472Z,101062.22
2017-09-17T15:46:17.434Z,101062.39
2017-09-17T15:48:47.183Z,101064.75
2017-09-17T15:51:16.137Z,101068.09
2017-09-17T15:53:44.486Z,101067.36
2017-09-17T15:56:12.866Z,101061.67
2017-09-17T15:58:41.784Z,101061.27
2017-09-17T16:01:11.097Z,101065.30
2017-09-17T16:03:39.447Z,101062.70
2017-09-17T16:06:08.334Z,101066.30
2017-09-17T16:08:37.403Z,101060.95
2017-09-17T16:11:06.671Z,101062.22
2017-09-17T16:13:36.044Z,101065.56
2017-09-17T16:16:05.205Z,101069.61
2017-09-17T16:18:34.211Z,101068.08
2017-09-17T16:21:02.894Z,101061.56
2017-09-17T16:23:32.693Z,101066.89
2017-09-17T16:26:01.071Z,101064.95
2017-09-17T16:28:29.942Z,101060.61
2017-09-17T16:30:59.130Z,101061.09
2017-09-17T16:33:29.184Z,101059.20
2017-09-17T16:36:00.243Z,101060.70
2017-09-17T16:38:30.068Z,101075.70
2017-09-17T16:40:59.773Z,101069.12
2017-09-17T16:43:29.208Z,101074.20
2017-09-17T16:45:57.808Z,101075.59
2017-09-17T16:48:27.261Z,101077.48
2017-09-17T16:50:56.483Z,101073.73
2017-09-17T16:53:24.888Z,101070.89
2017-09-17T16:55:54.401Z,101071.95
2017-09-17T16:58:23.562Z,101072.98
2017-09-17T17:00:52.661Z,101076.28
2017-09-17T17:03:21.020Z,101071.73
2017-09-17T17:05:49.842Z,101069.73
2017-09-17T17:08:18.218Z,101071.95
2017-09-17T17:10:47.366Z,101072.16
2017-09-17T17:13:18.155Z,101076.25
2017-09-17T17:15:46.534Z,101067.94
2017-09-17T17:18:14.882Z,101066.96
2017-09-17T17:20:43.817Z,101061.16
2017-09-17T17:23:12.158Z,101062.09
2017-09-17T17:25:40.527Z,101064.73
2017-09-17T17:28:09.403Z,101061.57
2017-09-17T17:30:38.826Z,101054.81
2017-09-17T17:33:07.221Z,101061.67
2017-09-17T17:35:36.327Z,101058.58
2017-09-17T17:38:05.420Z,101055.54
2017-09-17T17:40:34.022Z,101057.95
2017-09-17T17:43:05.037Z,101065.26
2017-09-17T17:45:33.672Z,101064.92
2017-09-17T17:48:02.063Z,101074.33
2017-09-17T17:50:31.737Z,101084.33
2017-09-17T17:53:00.693Z,101087.59
2017-09-17T17:55:30.182Z,101096.31
2017-09-17T17:57:59.807Z,101097.64
2017-09-17T18:00:28.836Z,101105.17
2017-09-17T18:02:57.971Z,101114.97
2017-09-17T18:05:27.700Z,101121.48
2017-09-17T18:07:56.038Z,101131.30
2017-09-17T18:10:24.611Z,101141.23
2017-09-17T18:12:53.235Z,101171.48
2017-09-17T18:15:22.364Z,101169.32
2017-09-17T18:17:51.016Z,101169.03
2017-09-17T18:20:21.382Z,101170.73
2017-09-17T18:22:50.604Z,101175.67
2017-09-17T18:25:19.786Z,101177.95
2017-09-17T18:27:48.558Z,101178.80
2017-09-17T18:30:16.952Z,101185.06
2017-09-17T18:32:45.319Z,101188.35
2017-09-17T18:35:14.221Z,101184.05
2017-09-17T18:37:42.637Z,101187.71
2017-09-17T18:40:11.096Z,101184.40
2017-09-17T18:42:39.896Z,101194.03
2017-09-17T18:45:08.487Z,101191.69
2017-09-17T18:47:36.904Z,101179.91
2017-09-17T18:50:08.698Z,101178.78
2017-09-17T18:52:37.992Z,101164.01
2017-09-17T18:55:06.383Z,101176.72
2017-09-17T18:57:35.123Z,101185.87
2017-09-17T19:00:04.341Z,101192.13
2017-09-17T19:02:33.556Z,101195.37
2017-09-17T19:05:03.659Z,101201.39
2017-09-17T19:07:32.158Z,101189.94
2017-09-17T19:10:00.989Z,101195.68
2017-09-17T19:12:30.679Z,101199.23
2017-09-17T19:15:00.024Z,101191.51
2017-09-17T19:17:31.370Z,101191.84
2017-09-17T19:20:01.376Z,101192.27
2017-09-17T19:22:30.539Z,101190.06
2017-09-17T19:25:00.219Z,101184.70
2017-09-17T19:27:29.321Z,101183.37
2017-09-17T19:29:57.672Z,101176.00
2017-09-17T19:32:26.705Z,101175.82
2017-09-17T19:34:55.074Z,101180.83
2017-09-17T19:37:23.441Z,101179.58
2017-09-17T19:39:52.173Z,101171.13
2017-09-17T19:42:21.256Z,101179.87
2017-09-17T19:44:50.325Z,101174.84
2017-09-17T19:47:19.784Z,101177.00
2017-09-17T19:49:49.642Z,101174.39
2017-09-17T19:52:18.014Z,101179.37
2017-09-17T19:54:47.771Z,101168.83
2017-09-17T19:57:16.135Z,101172.94
2017-09-17T19:59:45.236Z,101173.71
2017-09-17T20:02:13.930Z,101177.12
2017-09-17T20:04:42.313Z,101178.18
2017-09-17T20:07:11.503Z,101173.56
2017-09-17T20:09:40.184Z,101172.05
2017-09-17T20:12:09.319Z,101169.13
2017-09-17T20:14:38.352Z,101172.34
2017-09-17T20:17:07.196Z,101170.89
2017-09-17T20:19:35.584Z,101163.78
2017-09-17T20:22:05.933Z,101162.16
2017-09-17T20:24:36.048Z,101163.93
2017-09-17T20:27:05.590Z,101161.67
2017-09-17T20:29:33.936Z,101162.41
2017-09-17T20:32:04.841Z,101162.00
2017-09-17T20:37:41.479Z,101151.22
2017-09-17T20:40:09.927Z,101152.85
2017-09-17T20:42:38.340Z,101155.52
2017-09-17T20:45:07.209Z,101147.18
2017-09-17T20:47:35.577Z,101149.41
2017-09-17T20:50:03.945Z,101149.89
2017-09-17T20:52:33.590Z,101150.73
2017-09-17T20:55:01.974Z,101151.41
2017-09-17T20:57:30.323Z,101154.19
2017-09-17T20:59:59.130Z,101160.19
2017-09-17T21:02:27.491Z,101154.80
2017-09-17T21:04:55.842Z,101156.52
2017-09-17T21:07:25.281Z,101149.16
2017-09-17T21:09:53.647Z,101154.86
2017-09-17T21:12:22.028Z,101155.31
2017-09-17T21:14:50.926Z,101155.80
2017-09-17T21:17:19.274Z,101155.80
2017-09-17T21:19:47.632Z,101150.31
2017-09-17T21:22:16.806Z,101147.31
2017-09-17T21:24:45.179Z,101147.40
2017-09-17T21:27:14.320Z,101146.77
2017-09-17T21:29:43.050Z,101148.61
2017-09-17T21:32:11.417Z,101154.06
2017-09-17T21:34:40.530Z,101149.46
2017-09-17T21:37:09.318Z,101158.55
2017-09-17T21:39:37.678Z,101161.49
2017-09-17T21:42:06.825Z,101155.73
2017-09-17T21:44:35.542Z,101154.52
2017-09-17T21:47:03.900Z,101152.55
2017-09-17T21:49:32.307Z,101162.23
2017-09-17T21:52:01.046Z,101158.80
2017-09-17T21:54:29.409Z,101165.86
2017-09-17T21:56:57.789Z,101167.99
2017-09-17T21:59:26.478Z,101170.91
2017-09-17T22:01:54.817Z,101165.92
2017-09-17T22:04:23.157Z,101166.80
2017-09-17T22:06:51.967Z,101166.03
2017-09-17T22:09:20.337Z,101166.70
2017-09-17T22:11:48.738Z,101166.87
2017-09-17T22:14:17.394Z,101156.66
2017-09-17T22:16:45.793Z,101163.20
2017-09-17T22:19:14.165Z,101161.50
2017-09-17T22:21:42.806Z,101162.13
2017-09-17T22:24:11.195Z,101163.09
2017-09-17T22:26:39.556Z,101159.03
2017-09-17T22:29:08.460Z,101152.75
2017-09-17T22:31:36.817Z,101165.33
2017-09-17T22:34:05.185Z,101158.62
2017-09-17T22:36:34.599Z,101161.67
2017-09-17T22:39:03.744Z,101147.74
2017-09-17T22:41:32.130Z,101148.67
2017-09-17T22:44:00.788Z,101143.91
2017-09-17T22:46:29.147Z,101150.70
2017-09-17T22:48:57.529Z,101155.39
2017-09-17T22:51:26.477Z,101152.33
2017-09-17T22:53:54.865Z,101153.16
2017-09-17T22:56:23.217Z,101154.68
2017-09-17T22:58:51.936Z,101155.87
2017-09-17T23:01:20.281Z,101158.09
2017-09-17T23:03:48.671Z,101163.89
2017-09-17T23:06:18.160Z,101153.52
2017-09-17T23:08:46.514Z,101159.20
2017-09-17T23:11:14.866Z,101154.28
2017-09-17T23:13:43.737Z,101152.23
2017-09-17T23:16:12.070Z,101154.11
2017-09-17T23:18:40.493Z,101151.48
2017-09-17T23:21:09.135Z,101152.33
2017-09-17T23:23:37.538Z,101152.41
2017-09-17T23:26:05.977Z,101152.95
2017-09-17T23:28:35.500Z,101151.43
2017-09-17T23:31:03.870Z,101141.57
2017-09-17T23:33:32.240Z,101148.54
2017-09-17T23:36:00.959Z,101154.88
2017-09-17T23:38:29.303Z,101148.25
2017-09-17T23:40:58.447Z,101143.79
2017-09-17T23:43:27.195Z,101151.66
2017-09-17T23:45:55.542Z,101149.66
2017-09-17T23:48:23.902Z,101144.85
2017-09-17T23:50:52.727Z,101139.94
2017-09-17T23:53:26.487Z,101137.16
2017-09-17T23:55:55.362Z,101138.52
2017-09-17T23:58:23.697Z,101125.27
